sensor_id;sensor_type;location;lat;lon;timestamp;P1;durP1;ratioP1;P2;durP2;ratioP2
49738;SDS011;53662;50.114;8.626;2024-01-06T00:01:28;5.47;;;2.67;;
49738;SDS011;53662;50.114;8.626;2024-01-06T00:03:54;5.20;;;1.95;;
49738;SDS011;53662;50.114;8.626;2024-01-06T00:06:20;5.18;;;2.22;;
49738;SDS011;53662;50.114;8.626;2024-01-06T00:08:46;4.30;;;1.95;;
49738;SDS011;53662;50.114;8.626;2024-01-06T00:11:18;4.20;;;2.05;;
49738;SDS011;53662;50.114;8.626;2024-01-06T00:13:44;6.13;;;1.75;;
49738;SDS011;53662;50.114;8.626;2024-01-06T00:16:10;8.55;;;2.53;;
49738;SDS011;53662;50.114;8.626;2024-01-06T00:18:36;5.68;;;2.22;;
49738;SDS011;53662;50.114;8.626;2024-01-06T00:21:02;5.20;;;2.10;;
49738;SDS011;53662;50.114;8.626;2024-01-06T00:23:28;5.38;;;2.25;;
49738;SDS011;53662;50.114;8.626;2024-01-06T00:25:54;2.25;;;2.00;;
49738;SDS011;53662;50.114;8.626;2024-01-06T00:28:20;6.53;;;2.45;;
49738;SDS011;53662;50.114;8.626;2024-01-06T00:30:46;4.20;;;2.10;;
49738;SDS011;53662;50.114;8.626;2024-01-06T00:33:12;4.88;;;2.15;;
49738;SDS011;53662;50.114;8.626;2024-01-06T00:35:38;7.50;;;2.05;;
49738;SDS011;53662;50.114;8.626;2024-01-06T00:38:04;4.15;;;1.70;;
49738;SDS011;53662;50.114;8.626;2024-01-06T00:40:30;4.43;;;1.77;;
49738;SDS011;53662;50.114;8.626;2024-01-06T00:42:57;3.45;;;1.90;;
49738;SDS011;53662;50.114;8.626;2024-01-06T00:45:23;6.45;;;2.15;;
49738;SDS011;53662;50.114;8.626;2024-01-06T00:47:49;3.38;;;1.55;;
49738;SDS011;53662;50.114;8.626;2024-01-06T00:50:15;6.25;;;2.05;;
49738;SDS011;53662;50.114;8.626;2024-01-06T00:52:41;7.22;;;2.35;;
49738;SDS011;53662;50.114;8.626;2024-01-06T00:55:07;8.23;;;2.60;;
49738;SDS011;53662;50.114;8.626;2024-01-06T00:57:33;5.32;;;1.98;;
49738;SDS011;53662;50.114;8.626;2024-01-06T00:59:59;9.00;;;2.25;;
49738;SDS011;53662;50.114;8.626;2024-01-06T01:02:25;8.57;;;2.20;;
49738;SDS011;53662;50.114;8.626;2024-01-06T01:04:51;4.85;;;2.30;;
49738;SDS011;53662;50.114;8.626;2024-01-06T01:07:18;8.55;;;2.72;;
49738;SDS011;53662;50.114;8.626;2024-01-06T01:09:44;4.40;;;1.88;;
49738;SDS011;53662;50.114;8.626;2024-01-06T01:12:10;7.20;;;2.13;;
49738;SDS011;53662;50.114;8.626;2024-01-06T01:14:36;6.53;;;2.20;;
49738;SDS011;53662;50.114;8.626;2024-01-06T01:17:01;6.45;;;1.90;;
49738;SDS011;53662;50.114;8.626;2024-01-06T01:19:27;8.23;;;1.92;;
49738;SDS011;53662;50.114;8.626;2024-01-06T01:21:53;3.72;;;2.30;;
49738;SDS011;53662;50.114;8.626;2024-01-06T01:24:20;8.00;;;2.35;;
49738;SDS011;53662;50.114;8.626;2024-01-06T01:26:46;6.85;;;2.28;;
49738;SDS011;53662;50.114;8.626;2024-01-06T01:29:12;4.25;;;2.13;;
49738;SDS011;53662;50.114;8.626;2024-01-06T01:31:38;5.03;;;2.15;;
49738;SDS011;53662;50.114;8.626;2024-01-06T01:34:04;4.22;;;2.03;;
49738;SDS011;53662;50.114;8.626;2024-01-06T01:36:30;5.05;;;2.47;;
49738;SDS011;53662;50.114;8.626;2024-01-06T01:38:56;4.75;;;2.70;;
49738;SDS011;53662;50.114;8.626;2024-01-06T01:41:22;5.28;;;2.38;;
49738;SDS011;53662;50.114;8.626;2024-01-06T01:43:48;10.73;;;2.47;;
49738;SDS011;53662;50.114;8.626;2024-01-06T01:48:46;3.78;;;2.30;;
49738;SDS011;53662;50.114;8.626;2024-01-06T01:51:12;3.47;;;2.30;;
49738;SDS011;53662;50.114;8.626;2024-01-06T01:53:38;5.10;;;2.67;;
49738;SDS011;53662;50.114;8.626;2024-01-06T01:56:04;3.05;;;1.88;;
49738;SDS011;53662;50.114;8.626;2024-01-06T01:58:30;5.10;;;2.42;;
49738;SDS011;53662;50.114;8.626;2024-01-06T02:00:56;4.70;;;2.17;;
49738;SDS011;53662;50.114;8.626;2024-01-06T02:03:22;6.30;;;1.77;;
49738;SDS011;53662;50.114;8.626;2024-01-06T02:05:48;3.28;;;2.03;;
49738;SDS011;53662;50.114;8.626;2024-01-06T02:08:14;8.50;;;2.92;;
49738;SDS011;53662;50.114;8.626;2024-01-06T02:10:40;4.90;;;1.90;;
49738;SDS011;53662;50.114;8.626;2024-01-06T02:13:10;6.50;;;2.40;;
49738;SDS011;53662;50.114;8.626;2024-01-06T02:15:36;4.40;;;2.28;;
49738;SDS011;53662;50.114;8.626;2024-01-06T02:18:02;7.22;;;1.98;;
49738;SDS011;53662;50.114;8.626;2024-01-06T02:20:29;4.85;;;2.00;;
49738;SDS011;53662;50.114;8.626;2024-01-06T02:22:56;3.30;;;2.08;;
49738;SDS011;53662;50.114;8.626;2024-01-06T02:25:23;3.08;;;2.00;;
49738;SDS011;53662;50.114;8.626;2024-01-06T02:27:49;2.60;;;2.35;;
49738;SDS011;53662;50.114;8.626;2024-01-06T02:30:15;4.53;;;1.92;;
49738;SDS011;53662;50.114;8.626;2024-01-06T02:32:41;10.93;;;2.40;;
49738;SDS011;53662;50.114;8.626;2024-01-06T02:35:07;5.55;;;2.20;;
49738;SDS011;53662;50.114;8.626;2024-01-06T02:37:33;8.43;;;2.35;;
49738;SDS011;53662;50.114;8.626;2024-01-06T02:39:59;7.55;;;2.22;;
49738;SDS011;53662;50.114;8.626;2024-01-06T02:42:25;9.82;;;2.10;;
49738;SDS011;53662;50.114;8.626;2024-01-06T02:44:51;6.93;;;1.98;;
49738;SDS011;53662;50.114;8.626;2024-01-06T02:47:17;4.15;;;2.00;;
49738;SDS011;53662;50.114;8.626;2024-01-06T02:49:43;7.90;;;2.03;;
49738;SDS011;53662;50.114;8.626;2024-01-06T02:52:09;7.30;;;2.72;;
49738;SDS011;53662;50.114;8.626;2024-01-06T02:54:35;5.45;;;2.42;;
49738;SDS011;53662;50.114;8.626;2024-01-06T02:57:00;6.70;;;2.22;;
49738;SDS011;53662;50.114;8.626;2024-01-06T02:59:26;9.63;;;2.35;;
49738;SDS011;53662;50.114;8.626;2024-01-06T03:01:52;3.72;;;1.98;;
49738;SDS011;53662;50.114;8.626;2024-01-06T03:04:18;4.80;;;2.25;;
49738;SDS011;53662;50.114;8.626;2024-01-06T03:06:44;8.13;;;2.33;;
49738;SDS011;53662;50.114;8.626;2024-01-06T03:09:11;8.60;;;2.33;;
49738;SDS011;53662;50.114;8.626;2024-01-06T03:11:37;5.72;;;2.22;;
49738;SDS011;53662;50.114;8.626;2024-01-06T03:14:02;8.80;;;2.33;;
49738;SDS011;53662;50.114;8.626;2024-01-06T03:16:28;5.72;;;2.10;;
49738;SDS011;53662;50.114;8.626;2024-01-06T03:18:54;7.82;;;2.17;;
49738;SDS011;53662;50.114;8.626;2024-01-06T03:21:20;4.60;;;2.22;;
49738;SDS011;53662;50.114;8.626;2024-01-06T03:23:47;5.05;;;2.33;;
49738;SDS011;53662;50.114;8.626;2024-01-06T03:26:14;6.43;;;2.15;;
49738;SDS011;53662;50.114;8.626;2024-01-06T03:28:39;6.35;;;2.40;;
49738;SDS011;53662;50.114;8.626;2024-01-06T03:31:05;11.30;;;2.58;;
49738;SDS011;53662;50.114;8.626;2024-01-06T03:33:31;6.38;;;2.05;;
49738;SDS011;53662;50.114;8.626;2024-01-06T03:35:57;8.23;;;2.10;;
49738;SDS011;53662;50.114;8.626;2024-01-06T03:38:23;7.05;;;1.75;;
49738;SDS011;53662;50.114;8.626;2024-01-06T03:40:49;3.33;;;2.20;;
49738;SDS011;53662;50.114;8.626;2024-01-06T03:43:15;7.60;;;2.20;;
49738;SDS011;53662;50.114;8.626;2024-01-06T03:45:41;3.30;;;2.33;;
49738;SDS011;53662;50.114;8.626;2024-01-06T03:48:07;9.48;;;2.20;;
49738;SDS011;53662;50.114;8.626;2024-01-06T03:50:33;6.28;;;2.33;;
49738;SDS011;53662;50.114;8.626;2024-01-06T03:52:58;5.68;;;2.28;;
49738;SDS011;53662;50.114;8.626;2024-01-06T03:55:24;8.88;;;2.40;;
49738;SDS011;53662;50.114;8.626;2024-01-06T03:57:50;6.63;;;2.58;;
49738;SDS011;53662;50.114;8.626;2024-01-06T04:00:16;4.82;;;2.30;;
49738;SDS011;53662;50.114;8.626;2024-01-06T04:02:42;6.82;;;2.20;;
49738;SDS011;53662;50.114;8.626;2024-01-06T04:05:08;4.93;;;2.40;;
49738;SDS011;53662;50.114;8.626;2024-01-06T04:07:34;4.30;;;2.25;;
49738;SDS011;53662;50.114;8.626;2024-01-06T04:10:00;9.80;;;2.47;;
49738;SDS011;53662;50.114;8.626;2024-01-06T04:12:26;6.45;;;2.63;;
49738;SDS011;53662;50.114;8.626;2024-01-06T04:14:52;4.93;;;2.42;;
49738;SDS011;53662;50.114;8.626;2024-01-06T04:17:18;6.78;;;2.40;;
49738;SDS011;53662;50.114;8.626;2024-01-06T04:19:44;3.13;;;1.92;;
49738;SDS011;53662;50.114;8.626;2024-01-06T04:22:10;3.58;;;2.08;;
49738;SDS011;53662;50.114;8.626;2024-01-06T04:24:36;6.63;;;2.00;;
49738;SDS011;53662;50.114;8.626;2024-01-06T04:27:03;3.17;;;1.92;;
49738;SDS011;53662;50.114;8.626;2024-01-06T04:29:29;8.45;;;2.58;;
49738;SDS011;53662;50.114;8.626;2024-01-06T04:31:55;9.27;;;2.08;;
49738;SDS011;53662;50.114;8.626;2024-01-06T04:34:21;4.90;;;2.30;;
49738;SDS011;53662;50.114;8.626;2024-01-06T04:36:47;4.32;;;2.10;;
49738;SDS011;53662;50.114;8.626;2024-01-06T04:39:14;3.80;;;1.85;;
49738;SDS011;53662;50.114;8.626;2024-01-06T04:41:40;3.45;;;2.22;;
49738;SDS011;53662;50.114;8.626;2024-01-06T04:44:06;5.20;;;2.00;;
49738;SDS011;53662;50.114;8.626;2024-01-06T04:46:32;6.05;;;2.40;;
49738;SDS011;53662;50.114;8.626;2024-01-06T04:48:58;6.00;;;2.03;;
49738;SDS011;53662;50.114;8.626;2024-01-06T04:51:24;6.72;;;2.10;;
49738;SDS011;53662;50.114;8.626;2024-01-06T04:53:50;10.65;;;2.55;;
49738;SDS011;53662;50.114;8.626;2024-01-06T04:56:16;3.50;;;1.65;;
49738;SDS011;53662;50.114;8.626;2024-01-06T04:58:42;7.40;;;2.67;;
49738;SDS011;53662;50.114;8.626;2024-01-06T05:01:08;5.05;;;1.85;;
49738;SDS011;53662;50.114;8.626;2024-01-06T05:03:34;10.95;;;2.45;;
49738;SDS011;53662;50.114;8.626;2024-01-06T05:06:00;5.75;;;2.15;;
49738;SDS011;53662;50.114;8.626;2024-01-06T05:08:26;4.65;;;2.22;;
49738;SDS011;53662;50.114;8.626;2024-01-06T05:10:52;7.78;;;2.38;;
49738;SDS011;53662;50.114;8.626;2024-01-06T05:13:19;9.05;;;2.50;;
49738;SDS011;53662;50.114;8.626;2024-01-06T05:15:44;4.07;;;2.13;;
49738;SDS011;53662;50.114;8.626;2024-01-06T05:18:10;2.35;;;1.65;;
49738;SDS011;53662;50.114;8.626;2024-01-06T05:20:36;3.05;;;1.80;;
49738;SDS011;53662;50.114;8.626;2024-01-06T05:23:02;4.65;;;1.85;;
49738;SDS011;53662;50.114;8.626;2024-01-06T05:25:28;3.67;;;1.88;;
49738;SDS011;53662;50.114;8.626;2024-01-06T05:27:54;3.10;;;1.83;;
49738;SDS011;53662;50.114;8.626;2024-01-06T05:30:20;5.95;;;1.80;;
49738;SDS011;53662;50.114;8.626;2024-01-06T05:32:46;7.50;;;2.47;;
49738;SDS011;53662;50.114;8.626;2024-01-06T05:35:12;3.67;;;1.85;;
49738;SDS011;53662;50.114;8.626;2024-01-06T05:37:38;4.40;;;2.25;;
49738;SDS011;53662;50.114;8.626;2024-01-06T05:40:04;6.78;;;1.92;;
49738;SDS011;53662;50.114;8.626;2024-01-06T05:42:31;4.53;;;1.60;;
49738;SDS011;53662;50.114;8.626;2024-01-06T05:44:57;5.25;;;2.20;;
49738;SDS011;53662;50.114;8.626;2024-01-06T05:47:23;8.30;;;2.20;;
49738;SDS011;53662;50.114;8.626;2024-01-06T05:49:49;4.88;;;2.17;;
49738;SDS011;53662;50.114;8.626;2024-01-06T05:52:15;5.05;;;1.80;;
49738;SDS011;53662;50.114;8.626;2024-01-06T05:54:41;6.22;;;1.80;;
49738;SDS011;53662;50.114;8.626;2024-01-06T05:57:07;6.47;;;1.90;;
49738;SDS011;53662;50.114;8.626;2024-01-06T05:59:33;2.53;;;1.65;;
49738;SDS011;53662;50.114;8.626;2024-01-06T06:01:59;2.67;;;1.98;;
49738;SDS011;53662;50.114;8.626;2024-01-06T06:04:25;7.85;;;2.28;;
49738;SDS011;53662;50.114;8.626;2024-01-06T06:06:51;5.15;;;1.98;;
49738;SDS011;53662;50.114;8.626;2024-01-06T06:09:17;3.90;;;2.42;;
49738;SDS011;53662;50.114;8.626;2024-01-06T06:11:43;3.40;;;2.58;;
49738;SDS011;53662;50.114;8.626;2024-01-06T06:14:09;10.20;;;2.20;;
49738;SDS011;53662;50.114;8.626;2024-01-06T06:16:35;5.53;;;1.77;;
49738;SDS011;53662;50.114;8.626;2024-01-06T06:19:01;3.97;;;1.73;;
49738;SDS011;53662;50.114;8.626;2024-01-06T06:21:28;4.53;;;2.10;;
49738;SDS011;53662;50.114;8.626;2024-01-06T06:23:54;7.45;;;1.85;;
49738;SDS011;53662;50.114;8.626;2024-01-06T06:26:20;6.05;;;2.35;;
49738;SDS011;53662;50.114;8.626;2024-01-06T06:28:46;6.43;;;1.75;;
49738;SDS011;53662;50.114;8.626;2024-01-06T06:31:12;4.03;;;2.13;;
49738;SDS011;53662;50.114;8.626;2024-01-06T06:33:38;5.32;;;2.40;;
49738;SDS011;53662;50.114;8.626;2024-01-06T06:36:04;2.92;;;1.95;;
49738;SDS011;53662;50.114;8.626;2024-01-06T06:38:30;4.30;;;2.03;;
49738;SDS011;53662;50.114;8.626;2024-01-06T06:40:56;4.30;;;2.40;;
49738;SDS011;53662;50.114;8.626;2024-01-06T06:43:22;4.10;;;2.15;;
49738;SDS011;53662;50.114;8.626;2024-01-06T06:45:48;4.55;;;2.17;;
49738;SDS011;53662;50.114;8.626;2024-01-06T06:48:14;3.80;;;1.70;;
49738;SDS011;53662;50.114;8.626;2024-01-06T06:50:40;5.55;;;2.10;;
49738;SDS011;53662;50.114;8.626;2024-01-06T06:53:07;6.47;;;2.47;;
49738;SDS011;53662;50.114;8.626;2024-01-06T06:55:33;5.10;;;2.03;;
49738;SDS011;53662;50.114;8.626;2024-01-06T06:57:59;5.53;;;1.90;;
49738;SDS011;53662;50.114;8.626;2024-01-06T07:00:25;5.35;;;2.50;;
49738;SDS011;53662;50.114;8.626;2024-01-06T07:02:50;3.17;;;2.20;;
49738;SDS011;53662;50.114;8.626;2024-01-06T07:05:16;9.68;;;2.42;;
49738;SDS011;53662;50.114;8.626;2024-01-06T07:07:42;6.80;;;2.22;;
49738;SDS011;53662;50.114;8.626;2024-01-06T07:10:11;4.10;;;2.45;;
49738;SDS011;53662;50.114;8.626;2024-01-06T07:12:37;4.90;;;2.55;;
49738;SDS011;53662;50.114;8.626;2024-01-06T07:15:03;4.85;;;2.47;;
49738;SDS011;53662;50.114;8.626;2024-01-06T07:17:29;5.63;;;2.30;;
49738;SDS011;53662;50.114;8.626;2024-01-06T07:19:55;6.20;;;2.50;;
49738;SDS011;53662;50.114;8.626;2024-01-06T07:22:21;6.68;;;2.42;;
49738;SDS011;53662;50.114;8.626;2024-01-06T07:24:47;4.25;;;2.17;;
49738;SDS011;53662;50.114;8.626;2024-01-06T07:27:13;8.27;;;4.82;;
49738;SDS011;53662;50.114;8.626;2024-01-06T07:29:40;9.25;;;2.75;;
49738;SDS011;53662;50.114;8.626;2024-01-06T07:32:06;9.23;;;2.55;;
49738;SDS011;53662;50.114;8.626;2024-01-06T07:34:32;8.27;;;2.35;;
49738;SDS011;53662;50.114;8.626;2024-01-06T07:36:58;5.15;;;2.30;;
49738;SDS011;53662;50.114;8.626;2024-01-06T07:39:24;5.97;;;2.50;;
49738;SDS011;53662;50.114;8.626;2024-01-06T07:41:50;9.00;;;2.55;;
49738;SDS011;53662;50.114;8.626;2024-01-06T07:44:16;4.25;;;2.30;;
49738;SDS011;53662;50.114;8.626;2024-01-06T07:46:47;7.47;;;2.40;;
49738;SDS011;53662;50.114;8.626;2024-01-06T07:49:13;7.90;;;2.70;;
49738;SDS011;53662;50.114;8.626;2024-01-06T07:51:40;4.60;;;2.88;;
49738;SDS011;53662;50.114;8.626;2024-01-06T07:54:06;4.45;;;2.42;;
49738;SDS011;53662;50.114;8.626;2024-01-06T07:56:33;5.80;;;2.70;;
49738;SDS011;53662;50.114;8.626;2024-01-06T07:58:59;4.20;;;2.53;;
49738;SDS011;53662;50.114;8.626;2024-01-06T08:01:25;7.35;;;2.22;;
49738;SDS011;53662;50.114;8.626;2024-01-06T08:03:51;5.60;;;2.53;;
49738;SDS011;53662;50.114;8.626;2024-01-06T08:06:17;4.13;;;2.75;;
49738;SDS011;53662;50.114;8.626;2024-01-06T08:08:43;11.15;;;2.58;;
49738;SDS011;53662;50.114;8.626;2024-01-06T08:11:10;3.53;;;2.50;;
49738;SDS011;53662;50.114;8.626;2024-01-06T08:13:36;6.70;;;2.75;;
49738;SDS011;53662;50.114;8.626;2024-01-06T08:16:02;4.57;;;2.63;;
49738;SDS011;53662;50.114;8.626;2024-01-06T08:18:28;5.05;;;2.47;;
49738;SDS011;53662;50.114;8.626;2024-01-06T08:20:54;7.75;;;2.70;;
49738;SDS011;53662;50.114;8.626;2024-01-06T08:23:20;6.72;;;2.55;;
49738;SDS011;53662;50.114;8.626;2024-01-06T08:25:46;7.00;;;2.47;;
49738;SDS011;53662;50.114;8.626;2024-01-06T08:28:13;3.70;;;2.92;;
49738;SDS011;53662;50.114;8.626;2024-01-06T08:30:40;11.43;;;2.95;;
49738;SDS011;53662;50.114;8.626;2024-01-06T08:33:06;7.38;;;3.00;;
49738;SDS011;53662;50.114;8.626;2024-01-06T08:35:31;5.82;;;2.80;;
49738;SDS011;53662;50.114;8.626;2024-01-06T08:37:57;7.95;;;3.25;;
49738;SDS011;53662;50.114;8.626;2024-01-06T08:40:23;7.25;;;2.85;;
49738;SDS011;53662;50.114;8.626;2024-01-06T08:42:49;5.53;;;2.72;;
49738;SDS011;53662;50.114;8.626;2024-01-06T08:45:15;8.38;;;2.95;;
49738;SDS011;53662;50.114;8.626;2024-01-06T08:47:41;5.55;;;2.75;;
49738;SDS011;53662;50.114;8.626;2024-01-06T08:50:07;6.22;;;2.88;;
49738;SDS011;53662;50.114;8.626;2024-01-06T08:52:33;4.65;;;3.20;;
49738;SDS011;53662;50.114;8.626;2024-01-06T08:54:59;4.93;;;3.13;;
49738;SDS011;53662;50.114;8.626;2024-01-06T08:57:25;6.40;;;2.90;;
49738;SDS011;53662;50.114;8.626;2024-01-06T08:59:51;4.97;;;3.25;;
49738;SDS011;53662;50.114;8.626;2024-01-06T09:02:16;9.30;;;3.30;;
49738;SDS011;53662;50.114;8.626;2024-01-06T09:04:42;3.05;;;2.78;;
49738;SDS011;53662;50.114;8.626;2024-01-06T09:07:08;6.93;;;3.53;;
49738;SDS011;53662;50.114;8.626;2024-01-06T09:09:35;4.55;;;2.92;;
49738;SDS011;53662;50.114;8.626;2024-01-06T09:12:01;8.27;;;3.30;;
49738;SDS011;53662;50.114;8.626;2024-01-06T09:14:28;6.07;;;2.92;;
49738;SDS011;53662;50.114;8.626;2024-01-06T09:16:55;5.50;;;3.13;;
49738;SDS011;53662;50.114;8.626;2024-01-06T09:19:21;4.68;;;3.15;;
49738;SDS011;53662;50.114;8.626;2024-01-06T09:21:47;4.18;;;3.00;;
49738;SDS011;53662;50.114;8.626;2024-01-06T09:24:13;5.55;;;2.80;;
49738;SDS011;53662;50.114;8.626;2024-01-06T09:26:38;5.68;;;3.50;;
49738;SDS011;53662;50.114;8.626;2024-01-06T09:29:04;4.70;;;3.08;;
49738;SDS011;53662;50.114;8.626;2024-01-06T09:31:30;10.02;;;3.45;;
49738;SDS011;53662;50.114;8.626;2024-01-06T09:34:00;6.90;;;3.17;;
49738;SDS011;53662;50.114;8.626;2024-01-06T09:38:54;5.22;;;3.17;;
49738;SDS011;53662;50.114;8.626;2024-01-06T09:41:20;6.70;;;3.70;;
49738;SDS011;53662;50.114;8.626;2024-01-06T09:43:47;9.23;;;3.88;;
49738;SDS011;53662;50.114;8.626;2024-01-06T09:46:25;11.13;;;3.15;;
49738;SDS011;53662;50.114;8.626;2024-01-06T09:48:52;9.00;;;4.03;;
49738;SDS011;53662;50.114;8.626;2024-01-06T09:51:18;7.90;;;3.63;;
49738;SDS011;53662;50.114;8.626;2024-01-06T09:53:48;8.80;;;4.95;;
49738;SDS011;53662;50.114;8.626;2024-01-06T09:56:15;5.07;;;4.05;;
49738;SDS011;53662;50.114;8.626;2024-01-06T09:58:42;7.93;;;3.75;;
49738;SDS011;53662;50.114;8.626;2024-01-06T10:01:09;7.00;;;3.45;;
49738;SDS011;53662;50.114;8.626;2024-01-06T10:03:36;5.40;;;3.92;;
49738;SDS011;53662;50.114;8.626;2024-01-06T10:06:02;8.85;;;4.15;;
49738;SDS011;53662;50.114;8.626;2024-01-06T10:08:29;10.45;;;3.92;;
49738;SDS011;53662;50.114;8.626;2024-01-06T10:10:55;12.10;;;4.40;;
49738;SDS011;53662;50.114;8.626;2024-01-06T10:13:21;7.70;;;4.18;;
49738;SDS011;53662;50.114;8.626;2024-01-06T10:15:49;12.27;;;4.43;;
49738;SDS011;53662;50.114;8.626;2024-01-06T10:18:15;5.13;;;4.05;;
49738;SDS011;53662;50.114;8.626;2024-01-06T10:20:40;7.00;;;3.97;;
49738;SDS011;53662;50.114;8.626;2024-01-06T10:23:06;9.80;;;3.97;;
49738;SDS011;53662;50.114;8.626;2024-01-06T10:25:32;7.50;;;3.50;;
49738;SDS011;53662;50.114;8.626;2024-01-06T10:28:00;8.48;;;3.75;;
49738;SDS011;53662;50.114;8.626;2024-01-06T10:30:28;8.85;;;4.15;;
49738;SDS011;53662;50.114;8.626;2024-01-06T10:32:54;4.85;;;3.67;;
49738;SDS011;53662;50.114;8.626;2024-01-06T10:35:20;7.72;;;3.85;;
49738;SDS011;53662;50.114;8.626;2024-01-06T10:37:47;7.78;;;3.95;;
49738;SDS011;53662;50.114;8.626;2024-01-06T10:40:16;4.28;;;3.88;;
49738;SDS011;53662;50.114;8.626;2024-01-06T10:42:42;9.27;;;3.55;;
49738;SDS011;53662;50.114;8.626;2024-01-06T10:45:09;8.82;;;3.88;;
49738;SDS011;53662;50.114;8.626;2024-01-06T10:47:39;6.40;;;3.78;;
49738;SDS011;53662;50.114;8.626;2024-01-06T10:50:06;10.13;;;3.97;;
49738;SDS011;53662;50.114;8.626;2024-01-06T10:52:33;9.52;;;4.10;;
49738;SDS011;53662;50.114;8.626;2024-01-06T10:55:00;8.13;;;3.63;;
49738;SDS011;53662;50.114;8.626;2024-01-06T10:57:28;6.85;;;3.97;;
49738;SDS011;53662;50.114;8.626;2024-01-06T10:59:57;10.77;;;4.38;;
49738;SDS011;53662;50.114;8.626;2024-01-06T11:02:24;4.55;;;4.05;;
49738;SDS011;53662;50.114;8.626;2024-01-06T11:04:53;10.27;;;3.70;;
49738;SDS011;53662;50.114;8.626;2024-01-06T11:07:19;8.55;;;3.90;;
49738;SDS011;53662;50.114;8.626;2024-01-06T11:10:08;5.72;;;3.40;;
49738;SDS011;53662;50.114;8.626;2024-01-06T11:12:32;6.15;;;3.25;;
49738;SDS011;53662;50.114;8.626;2024-01-06T11:14:58;9.18;;;3.20;;
49738;SDS011;53662;50.114;8.626;2024-01-06T11:20:20;10.50;;;4.00;;
49738;SDS011;53662;50.114;8.626;2024-01-06T11:22:46;6.60;;;3.38;;
49738;SDS011;53662;50.114;8.626;2024-01-06T11:25:17;5.80;;;3.63;;
49738;SDS011;53662;50.114;8.626;2024-01-06T11:27:44;4.78;;;3.63;;
49738;SDS011;53662;50.114;8.626;2024-01-06T11:30:18;6.38;;;3.30;;
49738;SDS011;53662;50.114;8.626;2024-01-06T11:32:45;6.78;;;3.50;;
49738;SDS011;53662;50.114;8.626;2024-01-06T11:35:12;6.13;;;3.42;;
49738;SDS011;53662;50.114;8.626;2024-01-06T11:42:57;4.07;;;3.45;;
49738;SDS011;53662;50.114;8.626;2024-01-06T11:45:24;4.60;;;3.25;;
49738;SDS011;53662;50.114;8.626;2024-01-06T11:47:50;7.20;;;3.50;;
49738;SDS011;53662;50.114;8.626;2024-01-06T11:50:19;4.57;;;4.03;;
49738;SDS011;53662;50.114;8.626;2024-01-06T11:52:45;7.72;;;3.47;;
49738;SDS011;53662;50.114;8.626;2024-01-06T11:55:11;4.70;;;3.20;;
49738;SDS011;53662;50.114;8.626;2024-01-06T11:57:38;8.18;;;3.13;;
49738;SDS011;53662;50.114;8.626;2024-01-06T12:00:04;6.55;;;3.72;;
49738;SDS011;53662;50.114;8.626;2024-01-06T12:02:30;5.18;;;3.85;;
49738;SDS011;53662;50.114;8.626;2024-01-06T12:04:56;3.38;;;3.05;;
49738;SDS011;53662;50.114;8.626;2024-01-06T12:07:22;4.25;;;3.50;;
49738;SDS011;53662;50.114;8.626;2024-01-06T12:09:49;5.93;;;3.92;;
49738;SDS011;53662;50.114;8.626;2024-01-06T12:12:15;5.93;;;3.88;;
49738;SDS011;53662;50.114;8.626;2024-01-06T12:14:41;7.57;;;4.10;;
49738;SDS011;53662;50.114;8.626;2024-01-06T12:17:07;7.53;;;4.15;;
49738;SDS011;53662;50.114;8.626;2024-01-06T12:19:33;9.10;;;3.80;;
49738;SDS011;53662;50.114;8.626;2024-01-06T12:21:59;8.45;;;4.40;;
49738;SDS011;53662;50.114;8.626;2024-01-06T12:24:27;4.40;;;3.83;;
49738;SDS011;53662;50.114;8.626;2024-01-06T12:26:54;6.28;;;4.10;;
49738;SDS011;53662;50.114;8.626;2024-01-06T12:29:20;5.05;;;3.72;;
49738;SDS011;53662;50.114;8.626;2024-01-06T12:31:47;7.28;;;4.78;;
49738;SDS011;53662;50.114;8.626;2024-01-06T12:34:13;6.53;;;4.47;;
49738;SDS011;53662;50.114;8.626;2024-01-06T12:36:39;6.63;;;4.43;;
49738;SDS011;53662;50.114;8.626;2024-01-06T12:39:06;6.63;;;4.63;;
49738;SDS011;53662;50.114;8.626;2024-01-06T12:41:36;5.30;;;3.65;;
49738;SDS011;53662;50.114;8.626;2024-01-06T12:44:02;4.70;;;3.55;;
49738;SDS011;53662;50.114;8.626;2024-01-06T12:46:28;4.20;;;3.90;;
49738;SDS011;53662;50.114;8.626;2024-01-06T12:48:54;5.60;;;4.28;;
49738;SDS011;53662;50.114;8.626;2024-01-06T12:51:20;6.45;;;4.65;;
49738;SDS011;53662;50.114;8.626;2024-01-06T12:53:46;5.90;;;4.40;;
49738;SDS011;53662;50.114;8.626;2024-01-06T12:56:12;8.23;;;4.35;;
49738;SDS011;53662;50.114;8.626;2024-01-06T12:58:39;6.28;;;4.60;;
49738;SDS011;53662;50.114;8.626;2024-01-06T13:01:05;5.00;;;3.83;;
49738;SDS011;53662;50.114;8.626;2024-01-06T13:03:32;5.53;;;3.83;;
49738;SDS011;53662;50.114;8.626;2024-01-06T13:05:58;4.60;;;4.20;;
49738;SDS011;53662;50.114;8.626;2024-01-06T13:08:24;4.38;;;3.97;;
49738;SDS011;53662;50.114;8.626;2024-01-06T13:10:50;7.63;;;4.00;;
49738;SDS011;53662;50.114;8.626;2024-01-06T13:13:16;6.18;;;3.53;;
49738;SDS011;53662;50.114;8.626;2024-01-06T13:15:42;7.10;;;4.18;;
49738;SDS011;53662;50.114;8.626;2024-01-06T13:18:08;7.57;;;4.72;;
49738;SDS011;53662;50.114;8.626;2024-01-06T13:20:34;5.45;;;3.80;;
49738;SDS011;53662;50.114;8.626;2024-01-06T13:23:00;5.10;;;3.90;;
49738;SDS011;53662;50.114;8.626;2024-01-06T13:25:26;5.85;;;3.92;;
49738;SDS011;53662;50.114;8.626;2024-01-06T13:27:53;6.93;;;4.35;;
49738;SDS011;53662;50.114;8.626;2024-01-06T13:30:19;4.57;;;4.18;;
49738;SDS011;53662;50.114;8.626;2024-01-06T13:32:45;5.15;;;4.13;;
49738;SDS011;53662;50.114;8.626;2024-01-06T13:35:11;8.18;;;4.10;;
49738;SDS011;53662;50.114;8.626;2024-01-06T13:37:37;4.05;;;3.63;;
49738;SDS011;53662;50.114;8.626;2024-01-06T13:40:03;5.82;;;3.88;;
49738;SDS011;53662;50.114;8.626;2024-01-06T13:42:32;5.97;;;3.85;;
49738;SDS011;53662;50.114;8.626;2024-01-06T13:44:58;6.97;;;4.22;;
49738;SDS011;53662;50.114;8.626;2024-01-06T13:47:25;8.20;;;4.30;;
49738;SDS011;53662;50.114;8.626;2024-01-06T13:49:51;5.63;;;4.55;;
49738;SDS011;53662;50.114;8.626;2024-01-06T13:52:20;7.15;;;4.38;;
49738;SDS011;53662;50.114;8.626;2024-01-06T13:54:45;9.13;;;3.67;;
49738;SDS011;53662;50.114;8.626;2024-01-06T13:57:13;9.05;;;4.85;;
49738;SDS011;53662;50.114;8.626;2024-01-06T13:59:39;7.25;;;4.13;;
49738;SDS011;53662;50.114;8.626;2024-01-06T14:02:07;5.28;;;4.03;;
49738;SDS011;53662;50.114;8.626;2024-01-06T14:04:34;7.40;;;4.13;;
49738;SDS011;53662;50.114;8.626;2024-01-06T14:07:00;5.50;;;4.32;;
49738;SDS011;53662;50.114;8.626;2024-01-06T14:09:27;10.10;;;4.00;;
49738;SDS011;53662;50.114;8.626;2024-01-06T14:11:52;4.38;;;4.00;;
49738;SDS011;53662;50.114;8.626;2024-01-06T14:14:19;8.60;;;4.78;;
49738;SDS011;53662;50.114;8.626;2024-01-06T14:16:45;5.60;;;4.25;;
49738;SDS011;53662;50.114;8.626;2024-01-06T14:19:12;10.15;;;4.70;;
49738;SDS011;53662;50.114;8.626;2024-01-06T14:21:38;8.75;;;4.60;;
49738;SDS011;53662;50.114;8.626;2024-01-06T14:24:04;10.57;;;5.68;;
49738;SDS011;53662;50.114;8.626;2024-01-06T14:26:31;8.38;;;5.07;;
49738;SDS011;53662;50.114;8.626;2024-01-06T14:28:57;8.52;;;4.78;;
49738;SDS011;53662;50.114;8.626;2024-01-06T14:31:23;8.68;;;4.72;;
49738;SDS011;53662;50.114;8.626;2024-01-06T14:33:49;7.30;;;4.35;;
49738;SDS011;53662;50.114;8.626;2024-01-06T14:36:15;8.20;;;4.20;;
49738;SDS011;53662;50.114;8.626;2024-01-06T14:38:41;10.70;;;4.25;;
49738;SDS011;53662;50.114;8.626;2024-01-06T14:41:07;7.10;;;4.30;;
49738;SDS011;53662;50.114;8.626;2024-01-06T14:43:33;5.00;;;4.53;;
49738;SDS011;53662;50.114;8.626;2024-01-06T14:45:59;6.70;;;5.45;;
49738;SDS011;53662;50.114;8.626;2024-01-06T14:48:25;6.60;;;5.10;;
49738;SDS011;53662;50.114;8.626;2024-01-06T14:50:51;6.05;;;5.55;;
49738;SDS011;53662;50.114;8.626;2024-01-06T14:53:17;7.00;;;5.47;;
49738;SDS011;53662;50.114;8.626;2024-01-06T14:55:42;5.40;;;4.90;;